Decoded Metar for KLUL (LAUREL in MS, USA) (IATA:LUL) | Meteo·Mobile Aviation Weather
aviador You're here:

KLUL Decoded Metar

LAUREL in MS, USA
Report Time2019-01-19 01:55:00
UTC Time2019-01-19 01:59:47
Flight Rules vfr VFR
Wind130° at 04 kt
W.Decomp.*RWY 13: 4.0 kt HW -0 kt LCW
W.Rank130° ranks 9
Current wind is below 130° avg. (5.2)
Visibility9999 m
Phenomena:N/A
Clouds:Scattered 027 Hf
Broken 041 Hf
Ceiling4,100 ft
Temp14°C (ISA -0)
Dew Point14°C (100% RH)
AAT13.8°C
QNH1015 hPa
Density Alt397 ft
Elevation299 ft
Report Wrong Elevation
Raw Report
KLUL 190155Z AUTO 13004KT 10SM SCT027 BKN041 14/14 A2996 RMK AO2
T01400136=

Extra information for KLUL:More info

Metar Taf Metar & Taf Last 4 Metars F.Rules Stats Wind Profile Meteogram Temp Stats Airport Information Weather charts Add Link Nearby VenuesMetar ALERT Operation Metar Decoded Social comments

AIRNAV info for KLUL